sensor_id;sensor_type;location;lat;lon;timestamp;P1;durP1;ratioP1;P2;durP2;ratioP2
16965;SDS011;8599;47.852;12.070;2022-10-04T00:00:49;10.60;;;6.03;;
16965;SDS011;8599;47.852;12.070;2022-10-04T00:03:23;11.33;;;6.10;;
16965;SDS011;8599;47.852;12.070;2022-10-04T00:05:55;12.10;;;6.43;;
16965;SDS011;8599;47.852;12.070;2022-10-04T00:08:26;8.77;;;6.03;;
16965;SDS011;8599;47.852;12.070;2022-10-04T00:11:04;11.27;;;6.13;;
16965;SDS011;8599;47.852;12.070;2022-10-04T00:13:34;9.90;;;6.03;;
16965;SDS011;8599;47.852;12.070;2022-10-04T00:16:03;7.47;;;5.57;;
16965;SDS011;8599;47.852;12.070;2022-10-04T00:18:31;10.00;;;6.13;;
16965;SDS011;8599;47.852;12.070;2022-10-04T00:21:06;12.87;;;6.27;;
16965;SDS011;8599;47.852;12.070;2022-10-04T00:23:41;9.20;;;6.03;;
16965;SDS011;8599;47.852;12.070;2022-10-04T00:26:12;15.10;;;6.40;;
16965;SDS011;8599;47.852;12.070;2022-10-04T00:28:54;10.97;;;5.43;;
16965;SDS011;8599;47.852;12.070;2022-10-04T00:31:22;12.60;;;6.80;;
16965;SDS011;8599;47.852;12.070;2022-10-04T00:33:54;15.40;;;6.57;;
16965;SDS011;8599;47.852;12.070;2022-10-04T00:36:48;18.97;;;7.17;;
16965;SDS011;8599;47.852;12.070;2022-10-04T00:45:15;10.73;;;5.90;;
16965;SDS011;8599;47.852;12.070;2022-10-04T00:47:57;13.50;;;6.70;;
16965;SDS011;8599;47.852;12.070;2022-10-04T00:50:32;6.60;;;5.40;;
16965;SDS011;8599;47.852;12.070;2022-10-04T00:53:02;8.37;;;4.57;;
16965;SDS011;8599;47.852;12.070;2022-10-04T00:55:41;11.37;;;4.80;;
16965;SDS011;8599;47.852;12.070;2022-10-04T00:58:16;7.00;;;4.50;;
16965;SDS011;8599;47.852;12.070;2022-10-04T01:00:47;10.33;;;5.57;;
16965;SDS011;8599;47.852;12.070;2022-10-04T01:03:17;16.70;;;6.53;;
16965;SDS011;8599;47.852;12.070;2022-10-04T01:05:49;25.80;;;8.20;;
16965;SDS011;8599;47.852;12.070;2022-10-04T01:08:23;18.53;;;6.73;;
16965;SDS011;8599;47.852;12.070;2022-10-04T01:10:55;10.40;;;6.03;;
16965;SDS011;8599;47.852;12.070;2022-10-04T01:13:26;8.97;;;5.17;;
16965;SDS011;8599;47.852;12.070;2022-10-04T01:15:58;11.63;;;4.77;;
16965;SDS011;8599;47.852;12.070;2022-10-04T01:18:27;6.97;;;4.80;;
16965;SDS011;8599;47.852;12.070;2022-10-04T01:20:57;7.67;;;4.40;;
16965;SDS011;8599;47.852;12.070;2022-10-04T01:23:34;8.80;;;4.60;;
16965;SDS011;8599;47.852;12.070;2022-10-04T01:29:05;4.33;;;3.83;;
16965;SDS011;8599;47.852;12.070;2022-10-04T01:31:34;7.30;;;4.27;;
16965;SDS011;8599;47.852;12.070;2022-10-04T01:34:03;5.77;;;4.53;;
16965;SDS011;8599;47.852;12.070;2022-10-04T01:36:31;4.77;;;4.07;;
16965;SDS011;8599;47.852;12.070;2022-10-04T01:39:00;7.53;;;4.40;;
16965;SDS011;8599;47.852;12.070;2022-10-04T01:41:28;5.80;;;5.00;;
16965;SDS011;8599;47.852;12.070;2022-10-04T01:44:03;4.77;;;4.30;;
16965;SDS011;8599;47.852;12.070;2022-10-04T01:46:32;7.33;;;4.33;;
16965;SDS011;8599;47.852;12.070;2022-10-04T01:49:02;9.27;;;4.63;;
16965;SDS011;8599;47.852;12.070;2022-10-04T01:51:33;8.90;;;5.13;;
16965;SDS011;8599;47.852;12.070;2022-10-04T01:54:08;5.23;;;4.03;;
16965;SDS011;8599;47.852;12.070;2022-10-04T01:56:39;10.10;;;4.93;;
16965;SDS011;8599;47.852;12.070;2022-10-04T01:59:12;10.17;;;4.90;;
16965;SDS011;8599;47.852;12.070;2022-10-04T02:01:42;10.77;;;5.40;;
16965;SDS011;8599;47.852;12.070;2022-10-04T02:04:13;8.03;;;5.17;;
16965;SDS011;8599;47.852;12.070;2022-10-04T02:06:44;12.53;;;5.23;;
16965;SDS011;8599;47.852;12.070;2022-10-04T02:09:16;9.40;;;5.47;;
16965;SDS011;8599;47.852;12.070;2022-10-04T02:11:46;12.90;;;4.50;;
16965;SDS011;8599;47.852;12.070;2022-10-04T02:14:17;9.20;;;5.27;;
16965;SDS011;8599;47.852;12.070;2022-10-04T02:16:46;7.73;;;4.93;;
16965;SDS011;8599;47.852;12.070;2022-10-04T02:19:17;9.07;;;4.93;;
16965;SDS011;8599;47.852;12.070;2022-10-04T02:21:45;9.77;;;5.37;;
16965;SDS011;8599;47.852;12.070;2022-10-04T02:24:14;8.10;;;4.80;;
16965;SDS011;8599;47.852;12.070;2022-10-04T02:26:44;17.13;;;5.33;;
16965;SDS011;8599;47.852;12.070;2022-10-04T02:29:14;15.20;;;5.57;;
16965;SDS011;8599;47.852;12.070;2022-10-04T02:31:42;9.37;;;4.70;;
16965;SDS011;8599;47.852;12.070;2022-10-04T02:34:27;7.07;;;4.23;;
16965;SDS011;8599;47.852;12.070;2022-10-04T02:36:55;9.30;;;4.40;;
16965;SDS011;8599;47.852;12.070;2022-10-04T02:39:24;6.93;;;4.40;;
16965;SDS011;8599;47.852;12.070;2022-10-04T02:41:55;9.50;;;4.53;;
16965;SDS011;8599;47.852;12.070;2022-10-04T02:44:28;11.23;;;5.03;;
16965;SDS011;8599;47.852;12.070;2022-10-04T02:47:03;8.50;;;4.77;;
16965;SDS011;8599;47.852;12.070;2022-10-04T02:49:34;8.50;;;4.70;;
16965;SDS011;8599;47.852;12.070;2022-10-04T02:52:06;7.17;;;4.00;;
16965;SDS011;8599;47.852;12.070;2022-10-04T02:54:38;8.97;;;4.27;;
16965;SDS011;8599;47.852;12.070;2022-10-04T02:57:12;7.87;;;4.93;;
16965;SDS011;8599;47.852;12.070;2022-10-04T02:59:41;11.43;;;5.20;;
16965;SDS011;8599;47.852;12.070;2022-10-04T03:02:19;7.90;;;4.30;;
16965;SDS011;8599;47.852;12.070;2022-10-04T03:04:47;7.67;;;4.73;;
16965;SDS011;8599;47.852;12.070;2022-10-04T03:07:16;7.70;;;4.90;;
16965;SDS011;8599;47.852;12.070;2022-10-04T03:09:45;10.43;;;5.50;;
16965;SDS011;8599;47.852;12.070;2022-10-04T03:12:13;9.73;;;4.90;;
16965;SDS011;8599;47.852;12.070;2022-10-04T03:14:41;22.93;;;6.83;;
16965;SDS011;8599;47.852;12.070;2022-10-04T03:17:09;27.40;;;7.57;;
16965;SDS011;8599;47.852;12.070;2022-10-04T03:19:36;22.07;;;6.90;;
16965;SDS011;8599;47.852;12.070;2022-10-04T03:22:05;57.23;;;6.40;;
16965;SDS011;8599;47.852;12.070;2022-10-04T03:24:37;21.77;;;5.27;;
16965;SDS011;8599;47.852;12.070;2022-10-04T03:27:13;67.47;;;5.20;;
16965;SDS011;8599;47.852;12.070;2022-10-04T03:29:43;76.03;;;5.90;;
16965;SDS011;8599;47.852;12.070;2022-10-04T03:32:11;42.60;;;5.10;;
16965;SDS011;8599;47.852;12.070;2022-10-04T03:34:41;62.80;;;6.23;;
16965;SDS011;8599;47.852;12.070;2022-10-04T03:37:18;154.90;;;7.23;;
16965;SDS011;8599;47.852;12.070;2022-10-04T03:39:46;89.87;;;6.27;;
16965;SDS011;8599;47.852;12.070;2022-10-04T03:42:16;97.87;;;7.23;;
16965;SDS011;8599;47.852;12.070;2022-10-04T03:44:46;45.43;;;5.77;;
16965;SDS011;8599;47.852;12.070;2022-10-04T03:47:15;17.90;;;5.00;;
16965;SDS011;8599;47.852;12.070;2022-10-04T03:49:46;38.97;;;4.73;;
16965;SDS011;8599;47.852;12.070;2022-10-04T03:52:16;25.47;;;4.13;;
16965;SDS011;8599;47.852;12.070;2022-10-04T03:54:48;19.00;;;3.40;;
16965;SDS011;8599;47.852;12.070;2022-10-04T03:57:20;2.67;;;2.40;;
16965;SDS011;8599;47.852;12.070;2022-10-04T03:59:47;10.37;;;3.13;;
16965;SDS011;8599;47.852;12.070;2022-10-04T04:02:15;5.57;;;2.77;;
16965;SDS011;8599;47.852;12.070;2022-10-04T04:04:49;3.70;;;3.07;;
16965;SDS011;8599;47.852;12.070;2022-10-04T04:07:24;21.07;;;6.97;;
16965;SDS011;8599;47.852;12.070;2022-10-04T04:09:58;48.47;;;5.00;;
16965;SDS011;8599;47.852;12.070;2022-10-04T04:12:35;25.90;;;3.50;;
16965;SDS011;8599;47.852;12.070;2022-10-04T04:15:05;42.70;;;4.20;;
16965;SDS011;8599;47.852;12.070;2022-10-04T04:17:38;8.77;;;2.93;;
16965;SDS011;8599;47.852;12.070;2022-10-04T04:20:12;3.13;;;2.40;;
16965;SDS011;8599;47.852;12.070;2022-10-04T04:22:47;4.30;;;2.53;;
16965;SDS011;8599;47.852;12.070;2022-10-04T04:25:36;3.20;;;2.67;;
16965;SDS011;8599;47.852;12.070;2022-10-04T04:28:10;3.43;;;2.47;;
16965;SDS011;8599;47.852;12.070;2022-10-04T04:30:46;3.07;;;2.77;;
16965;SDS011;8599;47.852;12.070;2022-10-04T04:33:17;55.47;;;3.43;;
16965;SDS011;8599;47.852;12.070;2022-10-04T04:35:52;2.60;;;2.40;;
16965;SDS011;8599;47.852;12.070;2022-10-04T04:38:22;5.13;;;2.57;;
16965;SDS011;8599;47.852;12.070;2022-10-04T04:40:50;13.13;;;3.73;;
16965;SDS011;8599;47.852;12.070;2022-10-04T04:43:23;16.67;;;3.27;;
16965;SDS011;8599;47.852;12.070;2022-10-04T04:45:51;21.20;;;4.07;;
16965;SDS011;8599;47.852;12.070;2022-10-04T04:48:23;24.40;;;6.97;;
16965;SDS011;8599;47.852;12.070;2022-10-04T04:50:51;14.80;;;6.10;;
16965;SDS011;8599;47.852;12.070;2022-10-04T04:53:21;27.67;;;6.53;;
16965;SDS011;8599;47.852;12.070;2022-10-04T04:55:49;19.40;;;5.93;;
16965;SDS011;8599;47.852;12.070;2022-10-04T04:58:23;10.40;;;5.97;;
16965;SDS011;8599;47.852;12.070;2022-10-04T05:00:54;8.03;;;4.80;;
16965;SDS011;8599;47.852;12.070;2022-10-04T05:03:24;8.00;;;3.40;;
16965;SDS011;8599;47.852;12.070;2022-10-04T05:05:54;5.97;;;4.17;;
16965;SDS011;8599;47.852;12.070;2022-10-04T05:08:23;4.13;;;2.97;;
16965;SDS011;8599;47.852;12.070;2022-10-04T05:10:56;2.70;;;2.50;;
16965;SDS011;8599;47.852;12.070;2022-10-04T05:13:32;4.13;;;3.07;;
16965;SDS011;8599;47.852;12.070;2022-10-04T05:16:04;28.47;;;2.80;;
16965;SDS011;8599;47.852;12.070;2022-10-04T05:18:37;32.13;;;3.30;;
16965;SDS011;8599;47.852;12.070;2022-10-04T05:21:05;13.60;;;2.50;;
16965;SDS011;8599;47.852;12.070;2022-10-04T05:23:36;64.20;;;4.47;;
16965;SDS011;8599;47.852;12.070;2022-10-04T05:26:03;50.07;;;3.63;;
16965;SDS011;8599;47.852;12.070;2022-10-04T05:28:37;50.53;;;3.33;;
16965;SDS011;8599;47.852;12.070;2022-10-04T05:31:21;15.63;;;2.73;;
16965;SDS011;8599;47.852;12.070;2022-10-04T05:33:57;5.70;;;2.37;;
16965;SDS011;8599;47.852;12.070;2022-10-04T05:36:34;27.50;;;2.50;;
16965;SDS011;8599;47.852;12.070;2022-10-04T05:39:23;46.80;;;2.60;;
16965;SDS011;8599;47.852;12.070;2022-10-04T05:41:59;10.77;;;2.13;;
16965;SDS011;8599;47.852;12.070;2022-10-04T05:44:35;21.27;;;2.90;;
16965;SDS011;8599;47.852;12.070;2022-10-04T05:47:10;5.13;;;2.87;;
16965;SDS011;8599;47.852;12.070;2022-10-04T05:49:40;3.23;;;2.90;;
16965;SDS011;8599;47.852;12.070;2022-10-04T05:52:12;9.73;;;4.50;;
16965;SDS011;8599;47.852;12.070;2022-10-04T05:54:42;3.87;;;3.37;;
16965;SDS011;8599;47.852;12.070;2022-10-04T05:57:32;12.67;;;4.40;;
16965;SDS011;8599;47.852;12.070;2022-10-04T06:00:10;3.97;;;2.43;;
16965;SDS011;8599;47.852;12.070;2022-10-04T06:05:36;7.13;;;4.10;;
16965;SDS011;8599;47.852;12.070;2022-10-04T06:08:14;6.30;;;3.67;;
16965;SDS011;8599;47.852;12.070;2022-10-04T06:10:51;5.47;;;3.73;;
16965;SDS011;8599;47.852;12.070;2022-10-04T06:13:38;5.90;;;4.07;;
16965;SDS011;8599;47.852;12.070;2022-10-04T06:16:25;6.77;;;3.63;;
16965;SDS011;8599;47.852;12.070;2022-10-04T06:19:08;8.70;;;5.13;;
16965;SDS011;8599;47.852;12.070;2022-10-04T06:22:00;5.83;;;4.23;;
16965;SDS011;8599;47.852;12.070;2022-10-04T06:24:37;5.37;;;3.63;;
16965;SDS011;8599;47.852;12.070;2022-10-04T06:27:08;9.53;;;3.70;;
16965;SDS011;8599;47.852;12.070;2022-10-04T06:29:41;8.97;;;3.63;;
16965;SDS011;8599;47.852;12.070;2022-10-04T06:32:26;3.00;;;2.70;;
16965;SDS011;8599;47.852;12.070;2022-10-04T06:35:14;6.77;;;3.40;;
16965;SDS011;8599;47.852;12.070;2022-10-04T06:38:01;4.00;;;3.10;;
16965;SDS011;8599;47.852;12.070;2022-10-04T06:40:53;3.60;;;3.30;;
16965;SDS011;8599;47.852;12.070;2022-10-04T06:43:37;4.93;;;4.47;;
16965;SDS011;8599;47.852;12.070;2022-10-04T06:46:16;5.03;;;4.17;;
16965;SDS011;8599;47.852;12.070;2022-10-04T06:48:54;6.77;;;3.77;;
16965;SDS011;8599;47.852;12.070;2022-10-04T06:54:41;3.97;;;3.57;;
16965;SDS011;8599;47.852;12.070;2022-10-04T06:57:23;6.50;;;3.27;;
16965;SDS011;8599;47.852;12.070;2022-10-04T07:00:07;14.17;;;4.07;;
16965;SDS011;8599;47.852;12.070;2022-10-04T07:02:39;4.83;;;3.93;;
16965;SDS011;8599;47.852;12.070;2022-10-04T07:05:14;6.60;;;3.93;;
16965;SDS011;8599;47.852;12.070;2022-10-04T07:07:47;5.73;;;3.77;;
16965;SDS011;8599;47.852;12.070;2022-10-04T07:10:32;8.83;;;4.40;;
16965;SDS011;8599;47.852;12.070;2022-10-04T07:13:17;9.97;;;4.63;;
16965;SDS011;8599;47.852;12.070;2022-10-04T07:15:58;5.70;;;4.90;;
16965;SDS011;8599;47.852;12.070;2022-10-04T07:18:33;5.83;;;4.87;;
16965;SDS011;8599;47.852;12.070;2022-10-04T07:21:08;8.47;;;5.20;;
16965;SDS011;8599;47.852;12.070;2022-10-04T07:23:42;9.77;;;5.17;;
16965;SDS011;8599;47.852;12.070;2022-10-04T07:26:17;15.07;;;5.60;;
16965;SDS011;8599;47.852;12.070;2022-10-04T07:28:48;10.00;;;6.87;;
16965;SDS011;8599;47.852;12.070;2022-10-04T07:31:50;9.23;;;5.93;;
16965;SDS011;8599;47.852;12.070;2022-10-04T07:34:28;10.60;;;6.83;;
16965;SDS011;8599;47.852;12.070;2022-10-04T07:36:58;10.60;;;5.73;;
16965;SDS011;8599;47.852;12.070;2022-10-04T07:39:32;7.80;;;5.33;;
16965;SDS011;8599;47.852;12.070;2022-10-04T07:42:12;11.57;;;5.87;;
16965;SDS011;8599;47.852;12.070;2022-10-04T07:44:47;13.63;;;6.13;;
16965;SDS011;8599;47.852;12.070;2022-10-04T07:47:25;10.17;;;6.27;;
16965;SDS011;8599;47.852;12.070;2022-10-04T07:49:54;11.63;;;6.70;;
16965;SDS011;8599;47.852;12.070;2022-10-04T07:52:36;8.03;;;6.47;;
16965;SDS011;8599;47.852;12.070;2022-10-04T07:55:20;9.93;;;6.27;;
16965;SDS011;8599;47.852;12.070;2022-10-04T07:57:57;9.93;;;6.37;;
16965;SDS011;8599;47.852;12.070;2022-10-04T08:00:35;9.60;;;6.03;;
16965;SDS011;8599;47.852;12.070;2022-10-04T08:03:21;9.97;;;6.57;;
16965;SDS011;8599;47.852;12.070;2022-10-04T08:06:04;9.83;;;5.50;;
16965;SDS011;8599;47.852;12.070;2022-10-04T08:08:41;8.47;;;5.30;;
16965;SDS011;8599;47.852;12.070;2022-10-04T08:11:23;14.50;;;5.47;;
16965;SDS011;8599;47.852;12.070;2022-10-04T08:13:58;7.40;;;5.17;;
16965;SDS011;8599;47.852;12.070;2022-10-04T08:16:36;12.80;;;5.37;;
16965;SDS011;8599;47.852;12.070;2022-10-04T08:19:18;6.93;;;5.43;;
16965;SDS011;8599;47.852;12.070;2022-10-04T08:21:58;8.07;;;5.30;;
16965;SDS011;8599;47.852;12.070;2022-10-04T08:24:29;6.70;;;5.30;;
16965;SDS011;8599;47.852;12.070;2022-10-04T08:27:15;8.07;;;5.37;;
16965;SDS011;8599;47.852;12.070;2022-10-04T08:30:02;14.00;;;5.57;;
16965;SDS011;8599;47.852;12.070;2022-10-04T08:32:41;11.43;;;5.97;;
16965;SDS011;8599;47.852;12.070;2022-10-04T08:35:32;6.77;;;5.60;;
16965;SDS011;8599;47.852;12.070;2022-10-04T08:38:13;9.43;;;5.60;;
16965;SDS011;8599;47.852;12.070;2022-10-04T08:41:18;8.30;;;5.93;;
16965;SDS011;8599;47.852;12.070;2022-10-04T08:44:26;8.90;;;6.13;;
16965;SDS011;8599;47.852;12.070;2022-10-04T08:50:37;15.23;;;6.27;;
16965;SDS011;8599;47.852;12.070;2022-10-04T08:53:29;9.20;;;6.70;;
16965;SDS011;8599;47.852;12.070;2022-10-04T08:56:25;10.83;;;6.50;;
16965;SDS011;8599;47.852;12.070;2022-10-04T08:59:16;9.40;;;6.03;;
16965;SDS011;8599;47.852;12.070;2022-10-04T09:08:18;10.67;;;5.73;;
16965;SDS011;8599;47.852;12.070;2022-10-04T09:11:10;6.93;;;5.50;;
16965;SDS011;8599;47.852;12.070;2022-10-04T09:14:04;10.23;;;5.93;;
16965;SDS011;8599;47.852;12.070;2022-10-04T09:16:43;7.87;;;5.53;;
16965;SDS011;8599;47.852;12.070;2022-10-04T09:19:18;6.87;;;5.57;;
16965;SDS011;8599;47.852;12.070;2022-10-04T09:22:07;8.47;;;5.67;;
16965;SDS011;8599;47.852;12.070;2022-10-04T09:27:47;7.00;;;5.37;;
16965;SDS011;8599;47.852;12.070;2022-10-04T09:30:31;6.33;;;4.97;;
16965;SDS011;8599;47.852;12.070;2022-10-04T09:36:10;10.17;;;5.20;;
16965;SDS011;8599;47.852;12.070;2022-10-04T09:39:01;8.53;;;5.70;;
16965;SDS011;8599;47.852;12.070;2022-10-04T09:41:56;5.90;;;4.90;;
16965;SDS011;8599;47.852;12.070;2022-10-04T09:44:57;6.47;;;4.90;;
16965;SDS011;8599;47.852;12.070;2022-10-04T09:47:44;7.03;;;4.93;;
16965;SDS011;8599;47.852;12.070;2022-10-04T09:50:20;7.57;;;5.03;;
16965;SDS011;8599;47.852;12.070;2022-10-04T09:53:04;9.40;;;4.90;;
16965;SDS011;8599;47.852;12.070;2022-10-04T09:56:04;10.83;;;5.93;;
16965;SDS011;8599;47.852;12.070;2022-10-04T10:02:02;8.03;;;5.20;;
16965;SDS011;8599;47.852;12.070;2022-10-04T10:04:58;8.00;;;4.50;;
16965;SDS011;8599;47.852;12.070;2022-10-04T10:07:50;9.67;;;5.50;;
16965;SDS011;8599;47.852;12.070;2022-10-04T10:13:55;8.63;;;4.70;;
16965;SDS011;8599;47.852;12.070;2022-10-04T10:16:47;6.37;;;3.80;;
16965;SDS011;8599;47.852;12.070;2022-10-04T10:19:40;6.53;;;3.70;;
16965;SDS011;8599;47.852;12.070;2022-10-04T10:25:26;8.20;;;4.17;;
16965;SDS011;8599;47.852;12.070;2022-10-04T10:28:09;6.30;;;3.90;;
16965;SDS011;8599;47.852;12.070;2022-10-04T10:31:01;5.73;;;3.60;;
16965;SDS011;8599;47.852;12.070;2022-10-04T10:33:58;6.57;;;3.63;;
16965;SDS011;8599;47.852;12.070;2022-10-04T10:36:48;5.60;;;3.53;;
16965;SDS011;8599;47.852;12.070;2022-10-04T10:39:33;8.27;;;3.47;;
16965;SDS011;8599;47.852;12.070;2022-10-04T10:42:27;9.93;;;4.00;;
16965;SDS011;8599;47.852;12.070;2022-10-04T10:45:14;5.63;;;3.40;;
16965;SDS011;8599;47.852;12.070;2022-10-04T10:47:47;27.57;;;3.63;;
16965;SDS011;8599;47.852;12.070;2022-10-04T10:50:25;5.57;;;3.80;;
16965;SDS011;8599;47.852;12.070;2022-10-04T10:53:45;5.20;;;3.80;;
16965;SDS011;8599;47.852;12.070;2022-10-04T10:56:44;6.50;;;4.07;;
16965;SDS011;8599;47.852;12.070;2022-10-04T10:59:33;6.70;;;3.90;;
16965;SDS011;8599;47.852;12.070;2022-10-04T11:02:31;5.53;;;4.50;;
16965;SDS011;8599;47.852;12.070;2022-10-04T11:08:29;6.60;;;4.40;;
16965;SDS011;8599;47.852;12.070;2022-10-04T11:11:20;7.70;;;4.33;;
16965;SDS011;8599;47.852;12.070;2022-10-04T11:14:11;7.20;;;4.00;;
16965;SDS011;8599;47.852;12.070;2022-10-04T11:26:22;8.20;;;3.83;;
16965;SDS011;8599;47.852;12.070;2022-10-04T11:29:07;5.23;;;4.23;;
16965;SDS011;8599;47.852;12.070;2022-10-04T11:31:55;7.87;;;3.93;;
16965;SDS011;8599;47.852;12.070;2022-10-04T11:37:40;3.90;;;2.77;;
16965;SDS011;8599;47.852;12.070;2022-10-04T11:40:25;4.03;;;3.03;;
16965;SDS011;8599;47.852;12.070;2022-10-04T11:43:07;6.13;;;3.07;;
16965;SDS011;8599;47.852;12.070;2022-10-04T11:45:55;5.43;;;3.60;;
16965;SDS011;8599;47.852;12.070;2022-10-04T11:48:45;8.30;;;3.47;;
16965;SDS011;8599;47.852;12.070;2022-10-04T11:57:29;15.23;;;3.67;;
16965;SDS011;8599;47.852;12.070;2022-10-04T12:00:17;5.50;;;3.07;;
16965;SDS011;8599;47.852;12.070;2022-10-04T12:02:58;8.90;;;4.33;;
16965;SDS011;8599;47.852;12.070;2022-10-04T12:05:52;7.63;;;3.33;;
16965;SDS011;8599;47.852;12.070;2022-10-04T12:08:35;5.30;;;3.43;;
16965;SDS011;8599;47.852;12.070;2022-10-04T12:11:24;6.07;;;3.10;;
16965;SDS011;8599;47.852;12.070;2022-10-04T12:14:31;4.63;;;3.23;;
16965;SDS011;8599;47.852;12.070;2022-10-04T12:20:26;8.60;;;3.47;;
16965;SDS011;8599;47.852;12.070;2022-10-04T12:26:40;6.57;;;3.37;;
16965;SDS011;8599;47.852;12.070;2022-10-04T12:29:33;8.03;;;3.20;;
16965;SDS011;8599;47.852;12.070;2022-10-04T12:32:37;7.33;;;3.20;;
16965;SDS011;8599;47.852;12.070;2022-10-04T12:35:18;6.73;;;3.33;;
16965;SDS011;8599;47.852;12.070;2022-10-04T12:37:58;5.50;;;3.60;;
16965;SDS011;8599;47.852;12.070;2022-10-04T12:40:47;7.80;;;3.30;;
16965;SDS011;8599;47.852;12.070;2022-10-04T12:43:22;5.83;;;3.60;;
16965;SDS011;8599;47.852;12.070;2022-10-04T12:46:00;4.80;;;3.30;;
16965;SDS011;8599;47.852;12.070;2022-10-04T12:48:44;7.07;;;3.90;;
16965;SDS011;8599;47.852;12.070;2022-10-04T12:54:26;4.83;;;3.13;;
16965;SDS011;8599;47.852;12.070;2022-10-04T12:57:03;6.73;;;3.10;;
16965;SDS011;8599;47.852;12.070;2022-10-04T12:59:58;5.47;;;2.83;;
16965;SDS011;8599;47.852;12.070;2022-10-04T13:02:51;7.70;;;4.27;;
16965;SDS011;8599;47.852;12.070;2022-10-04T13:05:39;4.27;;;2.63;;
16965;SDS011;8599;47.852;12.070;2022-10-04T13:08:17;4.63;;;2.80;;
16965;SDS011;8599;47.852;12.070;2022-10-04T13:10:53;4.40;;;2.30;;
16965;SDS011;8599;47.852;12.070;2022-10-04T13:13:39;7.83;;;3.10;;
16965;SDS011;8599;47.852;12.070;2022-10-04T13:16:25;7.23;;;2.93;;
16965;SDS011;8599;47.852;12.070;2022-10-04T13:19:03;5.30;;;2.80;;
16965;SDS011;8599;47.852;12.070;2022-10-04T13:21:52;5.33;;;2.43;;
16965;SDS011;8599;47.852;12.070;2022-10-04T13:24:40;6.87;;;3.03;;
16965;SDS011;8599;47.852;12.070;2022-10-04T13:27:21;4.93;;;2.00;;
16965;SDS011;8599;47.852;12.070;2022-10-04T13:29:57;4.50;;;2.20;;
16965;SDS011;8599;47.852;12.070;2022-10-04T13:32:32;7.07;;;2.10;;
16965;SDS011;8599;47.852;12.070;2022-10-04T13:35:09;4.73;;;2.00;;
16965;SDS011;8599;47.852;12.070;2022-10-04T13:37:44;7.73;;;2.10;;
16965;SDS011;8599;47.852;12.070;2022-10-04T13:40:24;5.00;;;2.37;;
16965;SDS011;8599;47.852;12.070;2022-10-04T13:43:00;8.33;;;2.30;;
16965;SDS011;8599;47.852;12.070;2022-10-04T13:45:40;4.87;;;2.67;;
16965;SDS011;8599;47.852;12.070;2022-10-04T13:48:22;11.23;;;2.57;;
16965;SDS011;8599;47.852;12.070;2022-10-04T13:54:03;8.07;;;2.10;;
16965;SDS011;8599;47.852;12.070;2022-10-04T13:57:16;5.07;;;2.10;;
16965;SDS011;8599;47.852;12.070;2022-10-04T13:59:49;3.93;;;1.60;;
16965;SDS011;8599;47.852;12.070;2022-10-04T14:08:35;4.72;;;1.67;;
16965;SDS011;8599;47.852;12.070;2022-10-04T14:11:31;3.27;;;2.00;;
16965;SDS011;8599;47.852;12.070;2022-10-04T14:14:14;3.30;;;2.10;;
16965;SDS011;8599;47.852;12.070;2022-10-04T14:17:18;7.60;;;1.90;;
16965;SDS011;8599;47.852;12.070;2022-10-04T14:23:47;3.35;;;1.70;;
16965;SDS011;8599;47.852;12.070;2022-10-04T14:26:54;4.90;;;2.22;;
16965;SDS011;8599;47.852;12.070;2022-10-04T14:29:42;5.70;;;2.13;;
16965;SDS011;8599;47.852;12.070;2022-10-04T14:32:42;6.05;;;1.80;;
16965;SDS011;8599;47.852;12.070;2022-10-04T14:35:32;4.50;;;2.05;;
16965;SDS011;8599;47.852;12.070;2022-10-04T14:38:08;3.72;;;1.80;;
16965;SDS011;8599;47.852;12.070;2022-10-04T14:41:17;4.07;;;1.87;;
16965;SDS011;8599;47.852;12.070;2022-10-04T14:47:12;5.68;;;1.90;;
16965;SDS011;8599;47.852;12.070;2022-10-04T14:50:00;4.97;;;1.30;;
16965;SDS011;8599;47.852;12.070;2022-10-04T14:52:46;6.38;;;2.13;;
16965;SDS011;8599;47.852;12.070;2022-10-04T14:55:28;7.05;;;2.00;;
16965;SDS011;8599;47.852;12.070;2022-10-04T14:58:15;7.10;;;1.83;;
16965;SDS011;8599;47.852;12.070;2022-10-04T15:01:05;2.47;;;1.65;;
16965;SDS011;8599;47.852;12.070;2022-10-04T15:03:45;2.00;;;1.70;;
16965;SDS011;8599;47.852;12.070;2022-10-04T15:06:35;6.00;;;2.17;;
16965;SDS011;8599;47.852;12.070;2022-10-04T15:12:23;5.32;;;2.28;;
16965;SDS011;8599;47.852;12.070;2022-10-04T15:17:59;6.95;;;2.13;;
16965;SDS011;8599;47.852;12.070;2022-10-04T15:20:29;6.20;;;2.13;;
16965;SDS011;8599;47.852;12.070;2022-10-04T15:23:07;4.80;;;2.10;;
16965;SDS011;8599;47.852;12.070;2022-10-04T15:25:41;7.35;;;2.08;;
16965;SDS011;8599;47.852;12.070;2022-10-04T15:31:15;7.60;;;2.40;;
16965;SDS011;8599;47.852;12.070;2022-10-04T15:33:55;7.43;;;3.07;;
16965;SDS011;8599;47.852;12.070;2022-10-04T15:36:39;2.97;;;2.00;;
16965;SDS011;8599;47.852;12.070;2022-10-04T15:42:26;4.77;;;2.17;;
16965;SDS011;8599;47.852;12.070;2022-10-04T15:45:01;11.37;;;2.10;;
16965;SDS011;8599;47.852;12.070;2022-10-04T15:48:04;3.20;;;2.30;;
16965;SDS011;8599;47.852;12.070;2022-10-04T15:50:55;4.47;;;2.63;;
16965;SDS011;8599;47.852;12.070;2022-10-04T15:53:42;5.07;;;2.23;;
16965;SDS011;8599;47.852;12.070;2022-10-04T15:56:29;6.63;;;2.17;;
16965;SDS011;8599;47.852;12.070;2022-10-04T16:02:16;4.67;;;2.20;;
16965;SDS011;8599;47.852;12.070;2022-10-04T16:05:02;4.17;;;2.20;;
16965;SDS011;8599;47.852;12.070;2022-10-04T16:13:47;8.57;;;3.27;;
16965;SDS011;8599;47.852;12.070;2022-10-04T16:16:39;9.77;;;2.97;;
16965;SDS011;8599;47.852;12.070;2022-10-04T16:19:27;5.13;;;3.07;;
16965;SDS011;8599;47.852;12.070;2022-10-04T16:22:14;4.63;;;2.37;;
16965;SDS011;8599;47.852;12.070;2022-10-04T16:24:46;3.77;;;2.50;;
16965;SDS011;8599;47.852;12.070;2022-10-04T16:27:20;7.20;;;2.87;;
16965;SDS011;8599;47.852;12.070;2022-10-04T16:30:03;4.67;;;2.50;;
16965;SDS011;8599;47.852;12.070;2022-10-04T16:32:37;7.83;;;2.63;;
16965;SDS011;8599;47.852;12.070;2022-10-04T16:35:14;6.90;;;2.77;;
16965;SDS011;8599;47.852;12.070;2022-10-04T16:37:53;4.87;;;3.00;;
16965;SDS011;8599;47.852;12.070;2022-10-04T16:40:30;4.97;;;2.80;;
16965;SDS011;8599;47.852;12.070;2022-10-04T16:43:01;5.93;;;2.90;;
16965;SDS011;8599;47.852;12.070;2022-10-04T16:45:41;6.77;;;2.80;;
16965;SDS011;8599;47.852;12.070;2022-10-04T16:48:31;4.80;;;3.07;;
16965;SDS011;8599;47.852;12.070;2022-10-04T16:51:12;7.63;;;4.20;;
16965;SDS011;8599;47.852;12.070;2022-10-04T16:54:09;10.20;;;4.20;;
16965;SDS011;8599;47.852;12.070;2022-10-04T16:57:17;7.60;;;2.80;;
16965;SDS011;8599;47.852;12.070;2022-10-04T16:59:49;16.13;;;6.83;;
16965;SDS011;8599;47.852;12.070;2022-10-04T17:08:23;13.27;;;4.80;;
16965;SDS011;8599;47.852;12.070;2022-10-04T17:11:13;9.43;;;5.00;;
16965;SDS011;8599;47.852;12.070;2022-10-04T17:14:15;12.77;;;4.83;;
16965;SDS011;8599;47.852;12.070;2022-10-04T17:16:58;8.40;;;5.33;;
16965;SDS011;8599;47.852;12.070;2022-10-04T17:19:30;11.97;;;6.13;;
16965;SDS011;8599;47.852;12.070;2022-10-04T17:22:06;10.47;;;6.60;;
16965;SDS011;8599;47.852;12.070;2022-10-04T17:24:43;9.77;;;6.10;;
16965;SDS011;8599;47.852;12.070;2022-10-04T17:27:25;11.67;;;5.70;;
16965;SDS011;8599;47.852;12.070;2022-10-04T17:30:12;9.43;;;5.97;;
16965;SDS011;8599;47.852;12.070;2022-10-04T17:32:56;9.43;;;5.13;;
16965;SDS011;8599;47.852;12.070;2022-10-04T17:35:47;10.20;;;5.97;;
16965;SDS011;8599;47.852;12.070;2022-10-04T17:38:24;8.77;;;4.60;;
16965;SDS011;8599;47.852;12.070;2022-10-04T17:41:01;7.57;;;4.73;;
16965;SDS011;8599;47.852;12.070;2022-10-04T17:43:40;8.63;;;4.30;;
16965;SDS011;8599;47.852;12.070;2022-10-04T17:46:15;6.83;;;4.40;;
16965;SDS011;8599;47.852;12.070;2022-10-04T17:48:45;4.97;;;4.37;;
16965;SDS011;8599;47.852;12.070;2022-10-04T17:51:39;7.50;;;5.00;;